Time;durP1;ratioP1;P1;durP2;ratioP2;P2;SDS_P1;SDS_P2;PMS_P1;PMS_P2;Temp;Humidity;BMP_temperature;BMP_pressure;BME280_temperature;BME280_humidity;BME280_pressure;Samples;Min_cycle;Max_cycle;Signal;HPM_P1;HPM_P2
2021/09/02 00:00:05;;;;;;;0.30;0.30;;;19.70;77.50;;;;;;5024725;28;20592;-72
2021/09/02 00:02:32;;;;;;;0.10;0.10;;;19.70;77.60;;;;;;5020535;28;20371;-71
2021/09/02 00:04:59;;;;;;;0.00;0.00;;;19.60;77.90;;;;;;5025335;28;20206;-71
2021/09/02 00:07:27;;;;;;;0.10;0.10;;;19.60;78.10;;;;;;5023604;28;20663;-71
2021/09/02 00:09:55;;;;;;;0.10;0.10;;;19.60;78.30;;;;;;5021826;28;20212;-71
2021/09/02 00:12:22;;;;;;;0.03;0.03;;;19.70;78.50;;;;;;5023952;28;20219;-72
2021/09/02 00:14:49;;;;;;;0.23;0.23;;;19.70;78.50;;;;;;5022252;28;20274;-72
2021/09/02 00:17:18;;;;;;;0.00;0.00;;;19.70;78.60;;;;;;5022762;28;20211;-72
2021/09/02 00:19:44;;;;;;;0.00;0.00;;;19.70;78.40;;;;;;5023759;28;20213;-72
2021/09/02 00:22:13;;;;;;;0.00;0.00;;;19.60;78.80;;;;;;5021871;28;20250;-72
2021/09/02 00:24:41;;;;;;;0.10;0.10;;;19.60;78.20;;;;;;5021311;28;20358;-71
2021/09/02 00:27:08;;;;;;;0.20;0.20;;;19.50;78.20;;;;;;5023501;28;20628;-71
2021/09/02 00:29:35;;;;;;;0.20;0.20;;;19.50;78.30;;;;;;5021140;28;20636;-71
2021/09/02 00:32:02;;;;;;;0.00;0.00;;;19.40;78.50;;;;;;5021059;28;20455;-72
2021/09/02 00:34:29;;;;;;;0.10;0.10;;;19.40;78.50;;;;;;5023492;28;20253;-71
2021/09/02 00:36:57;;;;;;;0.00;0.00;;;19.40;78.60;;;;;;5021501;28;20215;-71
2021/09/02 00:39:24;;;;;;;0.00;0.00;;;19.30;78.60;;;;;;5023488;28;20251;-72
2021/09/02 00:41:51;;;;;;;0.10;0.10;;;19.30;78.80;;;;;;5022234;28;20302;-71
2021/09/02 00:44:38;;;;;;;0.00;0.00;;;19.30;78.90;;;;;;5024779;28;20629;-71
2021/09/02 00:47:09;;;;;;;0.10;0.10;;;19.20;78.80;;;;;;5023432;28;20211;-71
2021/09/02 00:49:37;;;;;;;0.17;0.13;;;19.30;78.90;;;;;;5022709;28;20211;-71
2021/09/02 00:52:10;;;;;;;0.00;0.00;;;19.30;79.00;;;;;;5021814;28;20242;-71
2021/09/02 00:54:40;;;;;;;0.00;0.00;;;19.30;79.20;;;;;;5020698;28;20270;-71
2021/09/02 00:57:11;;;;;;;0.13;0.13;;;19.30;79.20;;;;;;5021022;28;20212;-71
2021/09/02 00:59:39;;;;;;;0.10;0.10;;;19.20;79.30;;;;;;5023345;28;20647;-71
2021/09/02 01:02:09;;;;;;;0.10;0.10;;;19.20;79.40;;;;;;5020577;28;20305;-71
2021/09/02 01:04:36;;;;;;;0.10;0.10;;;19.20;79.60;;;;;;5022231;28;20222;-71
2021/09/02 01:07:05;;;;;;;0.23;0.23;;;19.10;79.70;;;;;;5022675;28;20219;-72
2021/09/02 01:09:35;;;;;;;0.00;0.00;;;19.10;79.60;;;;;;5021224;28;20215;-72
2021/09/02 01:12:53;;;;;;;0.10;0.10;;;19.10;79.50;;;;;;5024059;28;20269;-72
2021/09/02 01:15:26;;;;;;;0.10;0.10;;;19.00;79.40;;;;;;5021579;28;20500;-71
2021/09/02 01:17:58;;;;;;;0.00;0.00;;;19.00;79.30;;;;;;5020954;28;20265;-72
2021/09/02 01:20:28;;;;;;;0.20;0.20;;;18.90;79.20;;;;;;5021856;28;20261;-71
2021/09/02 01:22:58;;;;;;;0.10;0.10;;;18.90;79.30;;;;;;5023100;28;20254;-71
2021/09/02 01:25:31;;;;;;;0.20;0.20;;;18.80;79.50;;;;;;5021883;28;20262;-71
2021/09/02 01:28:01;;;;;;;0.10;0.10;;;18.70;79.70;;;;;;5021032;28;20593;-71
2021/09/02 01:30:29;;;;;;;0.00;0.00;;;18.60;79.80;;;;;;5020378;28;20211;-71
2021/09/02 01:32:57;;;;;;;0.00;0.00;;;18.60;79.80;;;;;;5022927;28;20651;-71
2021/09/02 01:35:25;;;;;;;0.00;0.00;;;18.60;79.80;;;;;;5020516;28;20211;-71
2021/09/02 01:37:54;;;;;;;0.10;0.10;;;18.60;79.90;;;;;;5021874;28;20239;-71
2021/09/02 01:40:42;;;;;;;0.10;0.10;;;18.50;79.80;;;;;;5023779;28;20345;-71
2021/09/02 01:43:12;;;;;;;0.60;0.60;;;18.50;80.10;;;;;;5022937;28;20227;-71
2021/09/02 01:45:40;;;;;;;0.10;0.10;;;18.50;80.40;;;;;;5024615;28;20207;-71
2021/09/02 01:48:08;;;;;;;0.00;0.00;;;18.50;80.60;;;;;;5023043;28;20253;-72
2021/09/02 01:50:40;;;;;;;0.10;0.10;;;18.40;80.50;;;;;;5020694;28;20219;-72
2021/09/02 01:53:13;;;;;;;0.37;0.37;;;18.40;80.50;;;;;;5020333;28;20346;-72
2021/09/02 01:55:42;;;;;;;0.17;0.17;;;18.40;80.40;;;;;;5021174;28;20258;-72
2021/09/02 01:58:09;;;;;;;0.10;0.10;;;18.40;80.30;;;;;;5021694;28;20669;-71
2021/09/02 02:00:36;;;;;;;0.10;0.10;;;18.30;80.10;;;;;;5021110;28;20620;-71
2021/09/02 02:03:04;;;;;;;0.00;0.00;;;18.30;80.10;;;;;;5022289;28;20231;-71
2021/09/02 02:05:32;;;;;;;0.00;0.00;;;18.30;80.00;;;;;;5032881;28;20302;-71
2021/09/02 02:07:59;;;;;;;0.10;0.10;;;18.20;79.50;;;;;;5020479;28;20771;-71
2021/09/02 02:10:27;;;;;;;0.13;0.13;;;18.20;79.40;;;;;;5023232;28;20639;-71
2021/09/02 02:13:00;;;;;;;0.00;0.00;;;18.10;79.30;;;;;;5027418;28;20211;-71
2021/09/02 02:15:28;;;;;;;0.00;0.00;;;18.10;79.60;;;;;;5021620;28;20212;-71
2021/09/02 02:17:57;;;;;;;0.00;0.00;;;18.10;79.70;;;;;;5020969;28;20288;-71
2021/09/02 02:20:24;;;;;;;0.10;0.10;;;18.10;79.60;;;;;;5024054;28;20214;-71
2021/09/02 02:22:52;;;;;;;0.00;0.00;;;18.10;79.40;;;;;;5026363;28;20235;-72
2021/09/02 02:25:19;;;;;;;0.10;0.10;;;18.00;79.30;;;;;;5022183;28;20682;-72
2021/09/02 02:27:46;;;;;;;0.10;0.10;;;18.00;79.20;;;;;;5023800;28;20628;-72
2021/09/02 02:30:16;;;;;;;0.10;0.10;;;18.00;79.60;;;;;;5027029;28;20266;-71
2021/09/02 02:32:44;;;;;;;0.00;0.00;;;17.90;80.60;;;;;;5022692;28;20211;-71
2021/09/02 02:35:13;;;;;;;0.10;0.10;;;18.00;81.20;;;;;;5026258;28;20219;-71
2021/09/02 02:37:41;;;;;;;0.10;0.10;;;17.90;81.30;;;;;;5024526;28;20247;-71
2021/09/02 02:40:10;;;;;;;0.10;0.10;;;18.00;81.80;;;;;;5025161;28;20211;-71
2021/09/02 02:42:37;;;;;;;0.27;0.27;;;18.00;81.90;;;;;;5024441;28;20228;-71
2021/09/02 02:45:06;;;;;;;0.00;0.00;;;17.90;82.10;;;;;;5026761;28;20211;-71
2021/09/02 02:47:33;;;;;;;0.20;0.20;;;17.90;82.40;;;;;;5033749;28;20273;-71
2021/09/02 02:50:01;;;;;;;0.00;0.00;;;17.90;82.60;;;;;;5027193;28;20704;-71
2021/09/02 02:52:28;;;;;;;0.13;0.13;;;18.00;82.70;;;;;;5021695;28;20216;-71
2021/09/02 02:54:54;;;;;;;0.10;0.10;;;18.00;82.70;;;;;;5022170;28;20219;-72
2021/09/02 02:57:22;;;;;;;0.00;0.00;;;18.00;82.90;;;;;;5026740;28;20215;-71
2021/09/02 02:59:49;;;;;;;0.10;0.10;;;18.00;82.90;;;;;;5026344;28;20596;-71
2021/09/02 03:02:16;;;;;;;0.10;0.10;;;18.10;82.90;;;;;;5025464;28;20266;-71
2021/09/02 03:04:43;;;;;;;0.10;0.10;;;18.00;82.80;;;;;;5024344;28;20523;-71
2021/09/02 03:07:10;;;;;;;0.10;0.10;;;18.00;83.00;;;;;;5026338;28;20652;-71
2021/09/02 03:09:37;;;;;;;0.10;0.10;;;18.00;83.30;;;;;;5024513;28;20215;-71
2021/09/02 03:12:05;;;;;;;0.10;0.10;;;17.90;84.00;;;;;;5023959;28;20278;-71
2021/09/02 03:14:32;;;;;;;0.10;0.10;;;17.90;84.60;;;;;;5026045;28;20212;-71
2021/09/02 03:16:59;;;;;;;0.00;0.00;;;17.80;85.30;;;;;;5024357;28;20230;-71
2021/09/02 03:19:26;;;;;;;0.47;0.47;;;17.80;84.80;;;;;;5025068;28;20810;-71
2021/09/02 03:21:53;;;;;;;0.20;0.20;;;17.80;85.20;;;;;;5026243;28;20218;-72
2021/09/02 03:24:20;;;;;;;0.07;0.07;;;17.80;85.70;;;;;;5018205;28;20212;-71
2021/09/02 03:26:47;;;;;;;0.10;0.10;;;17.90;85.80;;;;;;5022720;28;20215;-71
2021/09/02 03:29:14;;;;;;;0.20;0.20;;;17.90;85.90;;;;;;5024698;28;20277;-71
2021/09/02 03:31:41;;;;;;;0.00;0.00;;;17.90;86.00;;;;;;5023495;28;20511;-71
2021/09/02 03:34:08;;;;;;;0.10;0.10;;;17.80;85.90;;;;;;5024839;28;20211;-71
2021/09/02 03:36:35;;;;;;;0.10;0.10;;;17.80;85.80;;;;;;5023671;28;20285;-71
2021/09/02 03:39:02;;;;;;;0.57;0.57;;;17.80;85.80;;;;;;5023905;28;20539;-71
2021/09/02 03:41:29;;;;;;;0.73;0.73;;;17.90;86.00;;;;;;5024054;28;20226;-71
2021/09/02 03:43:57;;;;;;;0.47;0.47;;;17.90;86.00;;;;;;5022430;28;20344;-71
2021/09/02 03:46:24;;;;;;;0.53;0.53;;;17.90;86.10;;;;;;5024725;28;20218;-71
2021/09/02 03:48:51;;;;;;;0.17;0.17;;;17.90;86.10;;;;;;5022580;28;20260;-71
2021/09/02 03:51:18;;;;;;;0.00;0.00;;;18.00;86.00;;;;;;5025062;28;20210;-71
2021/09/02 03:53:45;;;;;;;0.77;0.63;;;18.00;86.00;;;;;;5024516;28;20277;-71
2021/09/02 03:56:12;;;;;;;0.20;0.20;;;18.00;85.90;;;;;;5021648;28;20676;-71
2021/09/02 03:58:39;;;;;;;0.00;0.00;;;18.00;86.00;;;;;;5025211;28;20226;-71
2021/09/02 04:01:07;;;;;;;2.63;2.40;;;18.00;86.20;;;;;;5032661;28;20548;-71
2021/09/02 04:03:34;;;;;;;0.13;0.13;;;17.90;86.30;;;;;;5022919;28;20667;-72
2021/09/02 04:06:02;;;;;;;0.10;0.10;;;17.90;86.60;;;;;;5024217;28;20212;-71
2021/09/02 04:08:29;;;;;;;0.07;0.07;;;17.90;86.50;;;;;;5023329;28;20242;-71
2021/09/02 04:10:56;;;;;;;0.00;0.00;;;17.90;86.50;;;;;;5022518;28;20216;-71
2021/09/02 04:13:24;;;;;;;0.00;0.00;;;17.90;86.80;;;;;;5022915;28;20253;-71
2021/09/02 04:15:51;;;;;;;0.20;0.20;;;17.90;86.80;;;;;;5023324;28;20226;-71
2021/09/02 04:18:18;;;;;;;0.00;0.00;;;17.90;86.70;;;;;;5022094;28;20255;-71
2021/09/02 04:20:45;;;;;;;0.00;0.00;;;17.90;86.70;;;;;;5026013;28;20215;-71
2021/09/02 04:23:12;;;;;;;0.00;0.00;;;18.00;86.70;;;;;;5021315;28;20625;-71
2021/09/02 04:25:39;;;;;;;0.10;0.10;;;18.00;86.60;;;;;;5020921;28;20226;-71
2021/09/02 04:28:06;;;;;;;0.63;0.63;;;18.00;87.30;;;;;;5025202;28;20293;-71
2021/09/02 04:30:33;;;;;;;0.10;0.10;;;18.00;86.50;;;;;;5022910;28;20227;-71
2021/09/02 04:33:03;;;;;;;0.20;0.20;;;18.10;86.60;;;;;;5023851;28;20225;-71
2021/09/02 04:35:31;;;;;;;0.10;0.10;;;18.10;86.50;;;;;;5022797;28;20216;-71
2021/09/02 04:37:58;;;;;;;0.10;0.10;;;18.10;86.30;;;;;;5021628;28;20247;-72
2021/09/02 04:40:25;;;;;;;0.10;0.10;;;18.10;86.20;;;;;;5023187;28;20632;-72
2021/09/02 04:42:52;;;;;;;0.10;0.10;;;18.10;86.10;;;;;;5021499;28;20227;-72
2021/09/02 04:45:19;;;;;;;0.10;0.10;;;18.00;86.00;;;;;;5024033;28;20577;-71
2021/09/02 04:47:46;;;;;;;0.00;0.00;;;18.00;86.00;;;;;;5021540;28;20283;-71
2021/09/02 04:50:13;;;;;;;0.40;0.40;;;18.00;85.90;;;;;;5024496;28;20215;-71
2021/09/02 04:52:40;;;;;;;0.10;0.10;;;18.00;85.80;;;;;;5019956;28;20223;-71
2021/09/02 04:55:10;;;;;;;0.20;0.20;;;18.00;85.80;;;;;;5021551;28;20220;-71
2021/09/02 04:57:38;;;;;;;0.00;0.00;;;18.00;85.70;;;;;;5023129;28;20310;-71
2021/09/02 05:00:06;;;;;;;0.10;0.10;;;18.00;85.50;;;;;;5022303;28;20250;-71
2021/09/02 05:02:34;;;;;;;0.10;0.10;;;18.00;85.30;;;;;;5021275;28;20300;-71
2021/09/02 05:05:01;;;;;;;0.30;0.30;;;18.00;85.30;;;;;;5023830;28;20588;-71
2021/09/02 05:07:28;;;;;;;1.07;0.53;;;18.00;85.10;;;;;;5021390;28;20208;-72
2021/09/02 05:09:55;;;;;;;0.10;0.10;;;18.00;85.00;;;;;;5023731;28;20590;-72
2021/09/02 05:12:22;;;;;;;0.10;0.10;;;18.10;85.00;;;;;;5020626;28;20277;-72
2021/09/02 05:14:49;;;;;;;0.10;0.10;;;18.10;84.80;;;;;;5024135;28;20285;-72
2021/09/02 05:17:16;;;;;;;0.07;0.07;;;18.20;84.80;;;;;;5012155;28;20222;-72
2021/09/02 05:19:43;;;;;;;0.10;0.10;;;18.30;84.90;;;;;;5016782;28;20238;-72
2021/09/02 05:22:10;;;;;;;0.00;0.00;;;18.50;85.10;;;;;;5020807;28;20215;-72
2021/09/02 05:24:37;;;;;;;0.10;0.10;;;18.80;84.60;;;;;;5021906;28;20227;-72
2021/09/02 05:27:05;;;;;;;0.00;0.00;;;19.10;83.70;;;;;;5018094;28;20211;-72
2021/09/02 05:29:33;;;;;;;0.20;0.20;;;19.40;83.00;;;;;;5021905;28;20648;-72
2021/09/02 05:32:00;;;;;;;0.00;0.00;;;19.60;82.10;;;;;;5021924;28;20301;-72
2021/09/02 05:34:27;;;;;;;0.10;0.10;;;19.80;81.10;;;;;;5022391;28;20238;-72
2021/09/02 05:36:54;;;;;;;0.43;0.43;;;19.90;80.30;;;;;;5023054;28;20230;-72
2021/09/02 05:39:21;;;;;;;2.80;0.87;;;19.90;80.30;;;;;;5022289;28;20768;-72
2021/09/02 05:41:50;;;;;;;0.00;0.00;;;19.90;80.50;;;;;;5020717;28;20664;-72
2021/09/02 05:44:17;;;;;;;0.10;0.10;;;19.80;80.70;;;;;;5024055;28;20231;-72
2021/09/02 05:46:44;;;;;;;0.50;0.50;;;19.90;80.80;;;;;;5020435;28;20224;-72
2021/09/02 05:49:11;;;;;;;2.93;0.63;;;19.90;80.80;;;;;;5020521;28;20253;-72
2021/09/02 05:51:39;;;;;;;0.37;0.37;;;19.90;80.80;;;;;;5022980;28;20223;-72
2021/09/02 05:54:06;;;;;;;0.10;0.10;;;20.00;80.90;;;;;;5020185;28;20273;-72
2021/09/02 05:56:33;;;;;;;0.10;0.10;;;20.00;80.90;;;;;;5024563;28;20220;-72
2021/09/02 05:59:00;;;;;;;0.10;0.10;;;20.10;81.00;;;;;;5026302;28;20223;-72
2021/09/02 06:01:27;;;;;;;0.77;0.77;;;20.10;80.90;;;;;;5026054;28;20233;-72
2021/09/02 06:03:54;;;;;;;0.20;0.20;;;20.20;80.90;;;;;;5025440;28;20239;-72
2021/09/02 06:06:21;;;;;;;0.00;0.00;;;20.40;81.10;;;;;;5027831;28;20215;-72
2021/09/02 06:08:48;;;;;;;1.60;1.50;;;20.50;80.90;;;;;;5036068;28;20260;-72
2021/09/02 06:11:15;;;;;;;0.10;0.10;;;20.70;80.60;;;;;;5023013;28;20536;-72
2021/09/02 06:13:42;;;;;;;0.30;0.30;;;20.90;79.90;;;;;;5027728;28;20643;-72
2021/09/02 06:16:09;;;;;;;0.10;0.10;;;20.90;79.50;;;;;;5023023;28;20224;-72
2021/09/02 06:18:37;;;;;;;0.77;0.77;;;20.90;79.40;;;;;;5024010;28;20698;-72
2021/09/02 06:21:04;;;;;;;0.13;0.13;;;21.00;79.60;;;;;;5030660;28;20238;-72
2021/09/02 06:23:31;;;;;;;0.20;0.20;;;21.10;79.00;;;;;;5025485;28;20231;-73
2021/09/02 06:25:59;;;;;;;0.53;0.53;;;21.10;79.00;;;;;;5026465;28;20216;-72
2021/09/02 06:28:27;;;;;;;0.10;0.10;;;21.30;78.70;;;;;;5024748;28;20219;-72
2021/09/02 06:30:54;;;;;;;0.13;0.13;;;21.60;78.00;;;;;;5025248;28;20293;-72
2021/09/02 06:33:21;;;;;;;0.00;0.00;;;21.70;77.50;;;;;;5025071;28;20714;-72
2021/09/02 06:35:48;;;;;;;0.20;0.20;;;21.80;76.90;;;;;;5026222;28;20613;-72
2021/09/02 06:38:15;;;;;;;0.10;0.10;;;21.90;76.40;;;;;;5024084;28;20243;-72
2021/09/02 06:40:43;;;;;;;0.10;0.10;;;22.00;76.30;;;;;;5026415;28;20273;-72
2021/09/02 06:43:10;;;;;;;0.00;0.00;;;22.20;76.00;;;;;;5022396;28;20703;-72
2021/09/02 06:45:38;;;;;;;2.53;1.60;;;22.30;75.90;;;;;;5020158;28;20289;-72
2021/09/02 06:48:05;;;;;;;0.13;0.13;;;22.50;75.20;;;;;;5027223;28;20631;-72
2021/09/02 06:50:33;;;;;;;0.10;0.10;;;22.60;74.90;;;;;;5025503;28;20647;-72
2021/09/02 06:53:00;;;;;;;0.43;0.43;;;22.70;74.50;;;;;;5024577;28;20216;-72
2021/09/02 06:55:27;;;;;;;0.13;0.13;;;22.80;74.40;;;;;;5024383;28;20207;-72
2021/09/02 06:57:54;;;;;;;0.00;0.00;;;23.00;74.20;;;;;;5025224;28;20226;-72
2021/09/02 07:00:21;;;;;;;0.10;0.10;;;23.10;73.50;;;;;;5024629;28;20214;-72
2021/09/02 07:02:48;;;;;;;2.53;0.77;;;23.20;73.50;;;;;;5025277;28;20220;-72
2021/09/02 07:05:16;;;;;;;40.97;1.60;;;23.20;73.30;;;;;;5030135;28;20203;-73
2021/09/02 07:07:44;;;;;;;0.10;0.10;;;23.40;73.10;;;;;;5031991;28;20215;-73
2021/09/02 07:10:31;;;;;;;0.63;0.50;;;23.50;72.60;;;;;;5028234;28;20632;-73
2021/09/02 07:12:58;;;;;;;0.00;0.00;;;23.60;72.40;;;;;;5029880;28;20246;-73
2021/09/02 07:15:25;;;;;;;0.07;0.07;;;23.70;72.10;;;;;;5024559;28;20212;-73
2021/09/02 07:17:53;;;;;;;0.00;0.00;;;23.80;71.90;;;;;;5026940;28;20212;-73
2021/09/02 07:20:20;;;;;;;0.00;0.00;;;24.00;71.70;;;;;;5026631;28;20199;-73
2021/09/02 07:22:48;;;;;;;0.00;0.00;;;24.20;70.90;;;;;;5024181;28;20678;-73
2021/09/02 07:25:15;;;;;;;0.00;0.00;;;24.30;70.60;;;;;;5024205;28;20243;-73
2021/09/02 07:27:42;;;;;;;0.10;0.10;;;24.50;70.40;;;;;;5023238;28;20658;-73
2021/09/02 07:30:10;;;;;;;0.10;0.10;;;24.70;70.10;;;;;;5025990;28;20230;-73
2021/09/02 07:32:38;;;;;;;0.73;0.73;;;24.90;69.70;;;;;;5024043;28;20238;-73
2021/09/02 07:35:06;;;;;;;0.37;0.30;;;25.20;69.10;;;;;;5024159;28;20215;-73
2021/09/02 07:37:34;;;;;;;0.00;0.00;;;25.40;68.40;;;;;;5021171;28;20246;-73
2021/09/02 07:40:01;;;;;;;0.00;0.00;;;25.40;67.20;;;;;;5026582;28;20211;-73
2021/09/02 07:42:28;;;;;;;0.00;0.00;;;25.40;67.40;;;;;;5023536;28;20207;-73
2021/09/02 07:44:57;;;;;;;0.00;0.00;;;25.50;67.00;;;;;;5026049;28;20682;-73
2021/09/02 07:47:25;;;;;;;0.10;0.10;;;25.40;65.60;;;;;;5025323;28;20619;-73
2021/09/02 07:49:52;;;;;;;0.00;0.00;;;25.40;66.60;;;;;;5022540;28;20644;-73
2021/09/02 07:52:19;;;;;;;0.00;0.00;;;25.60;66.70;;;;;;5025211;28;20237;-73
2021/09/02 07:54:46;;;;;;;2.27;1.07;;;25.80;66.30;;;;;;5020841;28;20215;-73
2021/09/02 07:57:13;;;;;;;0.63;0.63;;;26.00;66.20;;;;;;5023189;28;20280;-73
2021/09/02 07:59:41;;;;;;;0.20;0.20;;;26.20;65.80;;;;;;5023074;28;20622;-73
2021/09/02 08:02:08;;;;;;;0.00;0.00;;;26.50;64.80;;;;;;5022610;28;20215;-73
2021/09/02 08:04:35;;;;;;;0.00;0.00;;;26.60;64.40;;;;;;5023588;28;20577;-73
2021/09/02 08:07:03;;;;;;;2.37;2.10;;;26.70;64.20;;;;;;5022711;28;20227;-73
2021/09/02 08:09:29;;;;;;;0.10;0.10;;;26.90;63.80;;;;;;5030255;28;20272;-73
2021/09/02 08:11:56;;;;;;;1.20;0.93;;;27.10;63.60;;;;;;5032054;28;20215;-73
2021/09/02 08:14:24;;;;;;;0.00;0.00;;;27.20;61.70;;;;;;5026074;28;20280;-73
2021/09/02 08:16:50;;;;;;;0.10;0.10;;;27.10;62.10;;;;;;5021852;28;20223;-73
2021/09/02 08:19:17;;;;;;;0.00;0.00;;;27.10;62.70;;;;;;5023203;28;20288;-73
2021/09/02 08:21:45;;;;;;;0.00;0.00;;;27.30;62.70;;;;;;5023370;28;20219;-73
2021/09/02 08:24:12;;;;;;;0.00;0.00;;;27.60;62.10;;;;;;5022566;28;20243;-73
2021/09/02 08:26:40;;;;;;;0.07;0.07;;;27.80;60.90;;;;;;5024279;28;20281;-73
2021/09/02 08:29:06;;;;;;;0.00;0.00;;;28.00;60.20;;;;;;5023714;28;20650;-73
2021/09/02 08:31:34;;;;;;;9.23;1.20;;;28.10;58.70;;;;;;5023173;28;20220;-73
2021/09/02 08:34:01;;;;;;;0.00;0.00;;;28.00;58.70;;;;;;5021930;28;20218;-73
2021/09/02 08:36:29;;;;;;;0.83;0.53;;;27.90;59.10;;;;;;5023985;28;20211;-72
2021/09/02 08:38:56;;;;;;;0.00;0.00;;;28.00;58.70;;;;;;5021803;28;20254;-72
2021/09/02 08:41:23;;;;;;;0.10;0.10;;;28.20;58.30;;;;;;5024645;28;20597;-73
2021/09/02 08:43:50;;;;;;;0.00;0.00;;;28.40;58.10;;;;;;5021369;28;20290;-72
2021/09/02 08:46:33;;;;;;;0.20;0.20;;;28.60;57.30;;;;;;5019137;28;20218;-72
2021/09/02 08:49:02;;;;;;;0.10;0.10;;;28.80;56.30;;;;;;5022511;28;20216;-72
2021/09/02 08:51:30;;;;;;;0.00;0.00;;;28.80;54.80;;;;;;5023030;28;20238;-72
2021/09/02 08:53:57;;;;;;;0.30;0.20;;;28.70;55.60;;;;;;5020667;28;20258;-73
2021/09/02 08:56:25;;;;;;;0.00;0.00;;;28.80;55.70;;;;;;5020611;28;20227;-73
2021/09/02 08:58:51;;;;;;;0.00;0.00;;;28.90;55.40;;;;;;5021672;28;20223;-73
2021/09/02 09:01:18;;;;;;;0.60;0.60;;;29.00;54.60;;;;;;5023979;28;20250;-72
2021/09/02 09:03:50;;;;;;;0.00;0.00;;;29.10;54.10;;;;;;5022309;28;20605;-73
2021/09/02 09:06:31;;;;;;;0.00;0.00;;;29.20;54.50;;;;;;5022864;28;20653;-72
2021/09/02 09:08:58;;;;;;;0.10;0.10;;;29.30;53.10;;;;;;5021360;28;20212;-72
2021/09/02 09:11:28;;;;;;;0.00;0.00;;;29.10;53.70;;;;;;5024667;28;20222;-72
2021/09/02 09:14:14;;;;;;;0.10;0.10;;;28.80;54.50;;;;;;5022216;28;20223;-72
2021/09/02 09:16:51;;;;;;;0.00;0.00;;;28.70;53.60;;;;;;5016426;28;20212;-72
2021/09/02 09:19:50;;;;;;;0.00;0.00;;;28.80;53.70;;;;;;5023078;28;20222;-73
2021/09/02 09:22:22;;;;;;;0.00;0.00;;;29.00;53.60;;;;;;5020237;28;20851;-72
2021/09/02 09:24:55;;;;;;;0.00;0.00;;;29.40;52.80;;;;;;5021041;28;20258;-72
2021/09/02 09:27:50;;;;;;;1.27;1.20;;;29.50;52.60;;;;;;5021225;28;20647;-72
2021/09/02 09:30:26;;;;;;;0.57;0.57;;;29.70;52.10;;;;;;5020249;28;20223;-72
2021/09/02 09:32:57;;;;;;;0.00;0.00;;;29.80;51.90;;;;;;5021908;28;20666;-73
2021/09/02 09:35:26;;;;;;;0.00;0.00;;;30.10;51.20;;;;;;5023629;28;20223;-72
2021/09/02 09:38:07;;;;;;;0.10;0.10;;;29.90;50.60;;;;;;5020125;28;20282;-72
2021/09/02 09:40:38;;;;;;;0.00;0.00;;;29.60;50.90;;;;;;5022890;28;20229;-72
2021/09/02 09:43:11;;;;;;;0.00;0.00;;;29.60;49.80;;;;;;5022790;28;20222;-72
2021/09/02 09:45:48;;;;;;;0.00;0.00;;;29.70;49.90;;;;;;5019693;28;20317;-72
2021/09/02 09:48:34;;;;;;;0.10;0.10;;;30.00;49.70;;;;;;5022485;28;20226;-72
2021/09/02 09:51:22;;;;;;;0.00;0.00;;;30.20;49.50;;;;;;5020333;28;20636;-72
2021/09/02 09:53:53;;;;;;;0.00;0.00;;;30.20;49.80;;;;;;5025629;28;20229;-72
2021/09/02 09:56:22;;;;;;;0.00;0.00;;;30.30;49.50;;;;;;5020349;28;20221;-72
2021/09/02 09:58:52;;;;;;;0.20;0.20;;;30.20;49.30;;;;;;5022559;28;20215;-71
2021/09/02 10:01:19;;;;;;;0.10;0.10;;;29.90;49.00;;;;;;5021694;28;20236;-72
2021/09/02 10:03:51;;;;;;;0.00;0.00;;;29.80;48.20;;;;;;5021337;28;20211;-71
2021/09/02 10:06:19;;;;;;;0.00;0.00;;;29.90;47.60;;;;;;5022201;28;20215;-72
2021/09/02 10:08:47;;;;;;;0.30;0.30;;;30.10;47.00;;;;;;5020535;28;20222;-72
2021/09/02 10:11:15;;;;;;;0.10;0.10;;;30.10;46.10;;;;;;5020169;28;20243;-72
2021/09/02 10:13:43;;;;;;;0.03;0.03;;;29.90;45.50;;;;;;5030992;28;20227;-72
2021/09/02 10:16:11;;;;;;;0.00;0.00;;;29.80;46.00;;;;;;5021511;28;20217;-72
2021/09/02 10:18:46;;;;;;;0.00;0.00;;;29.90;46.00;;;;;;5021808;28;20219;-72
2021/09/02 10:21:17;;;;;;;0.00;0.00;;;30.00;46.10;;;;;;5023720;28;20643;-72
2021/09/02 10:23:44;;;;;;;0.10;0.10;;;30.20;45.90;;;;;;5021838;28;20223;-71
2021/09/02 10:26:35;;;;;;;0.07;0.07;;;30.40;45.70;;;;;;5019702;28;20538;-72
2021/09/02 10:29:34;;;;;;;0.20;0.20;;;30.50;45.30;;;;;;5020111;28;20273;-72
2021/09/02 10:32:23;;;;;;;0.00;0.00;;;30.70;44.60;;;;;;5024192;28;20220;-72
2021/09/02 10:34:52;;;;;;;0.00;0.00;;;30.80;44.70;;;;;;5020319;28;20220;-72
2021/09/02 10:37:35;;;;;;;0.00;0.00;;;31.00;44.30;;;;;;5019740;28;20564;-73
2021/09/02 10:40:27;;;;;;;0.00;0.00;;;31.20;43.80;;;;;;5020801;28;20215;-71
2021/09/02 10:42:56;;;;;;;0.00;0.00;;;31.10;44.00;;;;;;5024251;28;20219;-72
2021/09/02 10:45:27;;;;;;;0.00;0.00;;;31.20;43.90;;;;;;5026344;28;20238;-72
2021/09/02 10:47:57;;;;;;;0.00;0.00;;;31.10;43.00;;;;;;5023551;28;20216;-72
2021/09/02 10:50:27;;;;;;;0.53;0.53;;;30.90;42.80;;;;;;5027161;28;20212;-73
2021/09/02 10:53:25;;;;;;;0.00;0.00;;;30.90;43.10;;;;;;5025630;28;20574;-72
2021/09/02 10:55:58;;;;;;;0.00;0.00;;;31.10;42.90;;;;;;5025132;28;20223;-72
2021/09/02 10:58:48;;;;;;;0.00;0.00;;;31.40;42.90;;;;;;5023953;28;20218;-73
2021/09/02 11:01:28;;;;;;;0.00;0.00;;;31.60;42.30;;;;;;5025528;28;20219;-71
2021/09/02 11:03:56;;;;;;;0.00;0.00;;;31.70;41.90;;;;;;5023995;28;20406;-72
2021/09/02 11:06:24;;;;;;;0.00;0.00;;;31.70;41.10;;;;;;5024700;28;20211;-72
2021/09/02 11:08:51;;;;;;;0.20;0.20;;;31.50;41.00;;;;;;5024722;28;20212;-72
2021/09/02 11:11:20;;;;;;;0.00;0.00;;;31.20;41.60;;;;;;5024779;28;20268;-72
2021/09/02 11:13:50;;;;;;;0.00;0.00;;;30.90;41.40;;;;;;5026878;28;20786;-71
2021/09/02 11:16:21;;;;;;;0.00;0.00;;;30.90;42.10;;;;;;5026259;28;20223;-72
2021/09/02 11:18:48;;;;;;;0.10;0.10;;;31.10;42.40;;;;;;5027106;28;20215;-72
2021/09/02 11:21:23;;;;;;;0.00;0.00;;;31.40;42.40;;;;;;5026224;28;20207;-72
2021/09/02 11:24:00;;;;;;;0.00;0.00;;;31.40;41.80;;;;;;5024292;28;20525;-72
2021/09/02 11:26:36;;;;;;;0.00;0.00;;;31.30;41.70;;;;;;5025529;28;20211;-72
2021/09/02 11:29:05;;;;;;;0.07;0.07;;;31.30;41.70;;;;;;5033311;28;20602;-73
2021/09/02 11:31:32;;;;;;;0.00;0.00;;;31.40;41.50;;;;;;5029940;28;20207;-73
2021/09/02 11:34:00;;;;;;;0.10;0.10;;;31.60;41.10;;;;;;5023522;28;20223;-72
2021/09/02 11:36:28;;;;;;;0.00;0.00;;;31.70;41.10;;;;;;5027463;28;20713;-73
2021/09/02 11:39:09;;;;;;;0.00;0.00;;;31.80;41.30;;;;;;5025312;28;20331;-72
2021/09/02 11:41:37;;;;;;;0.00;0.00;;;32.00;41.10;;;;;;5023046;28;20215;-72
2021/09/02 11:44:04;;;;;;;0.70;0.70;;;32.20;40.90;;;;;;5028338;28;20235;-73
2021/09/02 11:46:32;;;;;;;0.00;0.00;;;32.30;40.60;;;;;;5023719;28;20228;-73
2021/09/02 11:48:59;;;;;;;0.00;0.00;;;32.30;38.20;;;;;;5024087;28;20218;-73
2021/09/02 11:51:28;;;;;;;0.10;0.10;;;32.20;39.10;;;;;;5021551;28;20277;-72
2021/09/02 11:54:10;;;;;;;0.00;0.00;;;32.20;39.40;;;;;;5021802;28;20223;-72
2021/09/02 11:56:43;;;;;;;0.00;0.00;;;32.20;39.50;;;;;;5023145;28;20216;-72
2021/09/02 11:59:11;;;;;;;0.10;0.10;;;32.20;39.20;;;;;;5029188;28;20207;-72
2021/09/02 12:01:45;;;;;;;0.00;0.00;;;32.20;38.90;;;;;;5027516;28;20207;-72
2021/09/02 12:04:31;;;;;;;0.13;0.13;;;32.20;39.10;;;;;;5021332;28;20546;-72
2021/09/02 12:07:03;;;;;;;0.00;0.00;;;32.30;39.20;;;;;;5022448;28;20557;-73
2021/09/02 12:09:34;;;;;;;0.00;0.00;;;32.30;39.60;;;;;;5022032;28;20212;-73
2021/09/02 12:12:02;;;;;;;0.20;0.20;;;32.40;39.50;;;;;;5023159;28;20212;-73
2021/09/02 12:14:31;;;;;;;1.23;1.13;;;32.40;39.70;;;;;;5023402;28;20273;-72
2021/09/02 12:17:06;;;;;;;1.50;0.93;;;32.50;39.10;;;;;;5023087;28;20222;-72
2021/09/02 12:20:03;;;;;;;0.00;0.00;;;32.40;38.70;;;;;;5024209;28;20226;-73
2021/09/02 12:22:40;;;;;;;0.20;0.20;;;32.40;38.90;;;;;;5017060;28;20251;-73
2021/09/02 12:25:17;;;;;;;0.10;0.10;;;32.30;39.30;;;;;;5020239;28;20712;-73
2021/09/02 12:27:50;;;;;;;0.00;0.00;;;32.30;39.00;;;;;;5024874;28;20622;-72
2021/09/02 12:30:39;;;;;;;0.10;0.10;;;32.30;39.00;;;;;;5022216;28;20262;-73
2021/09/02 12:33:14;;;;;;;0.00;0.00;;;32.00;38.80;;;;;;5021972;28;20685;-73
2021/09/02 12:35:43;;;;;;;1.37;1.27;;;32.00;39.40;;;;;;5026521;28;20235;-73
2021/09/02 12:38:37;;;;;;;0.10;0.10;;;31.70;39.50;;;;;;5023630;28;20261;-72
2021/09/02 12:41:15;;;;;;;0.10;0.10;;;31.40;39.80;;;;;;5022735;28;20227;-72
2021/09/02 12:44:30;;;;;;;0.00;0.00;;;31.20;40.10;;;;;;5021438;28;20216;-72
2021/09/02 12:47:01;;;;;;;0.00;0.00;;;31.00;40.50;;;;;;5006577;28;20215;-71
2021/09/02 12:49:30;;;;;;;0.23;0.23;;;31.10;40.70;;;;;;5029974;28;20218;-72
2021/09/02 12:52:04;;;;;;;0.00;0.00;;;31.20;40.20;;;;;;5022323;28;20219;-72
2021/09/02 12:55:00;;;;;;;3.10;0.67;;;31.40;39.60;;;;;;5021027;28;20212;-72
2021/09/02 12:57:30;;;;;;;0.00;0.00;;;31.20;39.80;;;;;;5022212;28;20215;-72
2021/09/02 13:00:00;;;;;;;0.00;0.00;;;30.80;40.50;;;;;;5022194;28;20591;-71
2021/09/02 13:02:28;;;;;;;0.10;0.10;;;30.70;40.90;;;;;;5023684;28;20211;-71